This is the latest recevied weather packets stored in our database for station/object VK5ARG-5. If no packets are shown the sender has not sent any weather packets the latest 10 day(s).
| Time | Temp. | Humidity | Pressure | Rain* | Wind** | Luminosity | Snow |
|---|---|---|---|---|---|---|---|
| 1777697129 | 13.89° C | 97% | - | 1.02 mm | - | - | - |
| 1777696525 | 13.33° C | 97% | - | 0.76 mm | - | - | - |
| 1777694149 | 13.89° C | 96% | - | 1.02 mm | - | - | - |
| 1777693524 | 14.44° C | 94% | - | 0.76 mm | - | - | - |
| 1777685727 | 20.56° C | 55% | - | 0 mm | - | - | - |
| 1777679725 | 18.33° C | 59% | - | 0 mm | - | - | - |
| 1777673127 | 21.11° C | 43% | - | 0 mm | - | - | - |
| 1777670721 | 20° C | 46% | - | 0 mm | - | - | - |
| 1777670126 | 20° C | 47% | - | 0 mm | - | - | - |
| 1777669523 | 20° C | 47% | - | 0 mm | - | - | - |
| 1777668949 | 19.44° C | 47% | - | 0 mm | - | - | - |
| 1777665926 | 19.44° C | 45% | - | 0 mm | - | - | - |
| 1777665323 | 19.44° C | 45% | - | 0 mm | - | - | - |
| 1777661726 | 20.56° C | 42% | - | 0 mm | - | - | - |
| 1777661124 | 20.56° C | 42% | - | 0 mm | - | - | - |
| 1777658121 | 20.56° C | 42% | - | 0 mm | - | - | - |
| 1777655724 | 21.11° C | 41% | - | 0 mm | - | - | - |
| 1777649127 | 20.56° C | 41% | - | 0 mm | - | - | - |
| 1777647324 | 21.11° C | 40% | - | 0 mm | - | - | - |
| 1777645522 | 21.11° C | 40% | - | 0 mm | - | - | - |
| 1777644343 | 21.11° C | 39% | - | 0 mm | - | - | - |
| 1777640123 | 21.67° C | 37% | - | 0 mm | - | - | - |
| 1777637745 | 21.67° C | 38% | - | 0 mm | - | - | - |
| 1777632941 | 21.67° C | 40% | - | 0 mm | - | - | - |
| 1777629928 | 21.67° C | 41% | - | 0 mm | - | - | - |
* Rain latest hour (hover to see other rain measurements)
** Current wind speed in m/s (hover to see current wind gust speed)